GAI weather

Montgomery County Airpark
Gaithersburg, Maryland, United States

Public forecast

Using degrees Fahrenheit for public forecast. Weather courtesy of forecast.io.

METAR (pilot weather report)

Retrieved 2019/05/21 08:56 UTC (12 minutes ago):

KGAI 210856Z AUTO 31006KT 10SM CLR 15/09 A2996 RMK AO2 SLP170 T01500089 51013

TAF (pilot weather forecast)

Closest forecast is Washington Dulles International Airport, 19.1 nm (35.3 km) SW. Retrieved 2019/05/21 06:42 UTC (2 hours ago):

TAF KIAD 210540Z 2106/2212 33007KT P6SM SKC FM211200 33013G18KT P6SM FEW150 FM211700 33009KT P6SM FEW150 FM220200 VRB03KT P6SM FEW110